createdAt,value
2018-02-15T00:02:58.176Z,99791.25
2018-02-15T00:05:59.625Z,99808.65
2018-02-15T00:09:01.074Z,99803.91
2018-02-15T00:12:02.555Z,99794.73
2018-02-15T00:15:04.812Z,99802.12
2018-02-15T00:18:06.259Z,99793.33
2018-02-15T00:21:07.751Z,99782.94
2018-02-15T00:24:09.159Z,99790.73
2018-02-15T00:27:10.604Z,99784.95
2018-02-15T00:30:11.988Z,99778.52
2018-02-15T00:33:14.273Z,99808.65
2018-02-15T00:36:20.009Z,99795.10
2018-02-15T00:39:21.514Z,99781.66
2018-02-15T00:42:22.946Z,99780.34
2018-02-15T00:45:25.279Z,99767.66
2018-02-15T00:48:26.727Z,99757.99
2018-02-15T00:51:28.920Z,99733.25
2018-02-15T00:54:30.381Z,99745.41
2018-02-15T00:57:31.868Z,99756.31
2018-02-15T01:00:33.338Z,99756.53
2018-02-15T01:03:34.816Z,99754.42
2018-02-15T01:06:36.331Z,99741.31
2018-02-15T01:09:37.732Z,99743.84
2018-02-15T01:12:39.148Z,99755.63
2018-02-15T01:15:41.319Z,99745.83
2018-02-15T01:18:42.797Z,99737.09
2018-02-15T01:21:44.266Z,99737.58
2018-02-15T01:24:45.761Z,99718.73
2018-02-15T01:27:47.204Z,99703.05
2018-02-15T01:30:48.667Z,99690.34
2018-02-15T01:33:50.868Z,99675.80
2018-02-15T01:36:53.047Z,99667.97
2018-02-15T01:39:54.458Z,99677.86
2018-02-15T01:42:55.928Z,99670.84
2018-02-15T01:45:57.333Z,99654.49
2018-02-15T01:48:59.482Z,99655.53
2018-02-15T01:52:00.950Z,99640.11
2018-02-15T01:55:02.416Z,99653.43
2018-02-15T01:58:03.813Z,99655.34
2018-02-15T02:01:05.452Z,99656.25
2018-02-15T02:04:07.599Z,99657.67
2018-02-15T02:07:09.084Z,99668.88
2018-02-15T02:10:10.516Z,99671.52
2018-02-15T02:13:11.970Z,99671.25
2018-02-15T02:16:13.410Z,99687.57
2018-02-15T02:19:14.831Z,99690.25
2018-02-15T02:22:16.300Z,99694.47
2018-02-15T02:25:18.483Z,99683.34
2018-02-15T02:28:19.882Z,99663.26
2018-02-15T02:31:22.033Z,99655.66
2018-02-15T02:34:23.463Z,99669.02
2018-02-15T02:37:24.863Z,99670.28
2018-02-15T02:40:26.980Z,99673.66
2018-02-15T02:43:28.434Z,99671.03
2018-02-15T02:46:30.569Z,99669.97
2018-02-15T02:49:31.946Z,99665.87
2018-02-15T02:52:33.339Z,99661.77
2018-02-15T02:55:34.775Z,99661.05
2018-02-15T02:58:36.213Z,99662.34
2018-02-15T03:01:37.615Z,99651.31
2018-02-15T03:04:39.128Z,99670.88
2018-02-15T03:07:40.544Z,99713.09
2018-02-15T03:10:42.663Z,99674.47
2018-02-15T03:13:44.127Z,99676.33
2018-02-15T03:16:45.627Z,99672.47
2018-02-15T03:19:47.099Z,99631.84
2018-02-15T03:22:49.266Z,99656.96
2018-02-15T03:25:50.641Z,99645.27
2018-02-15T03:28:52.116Z,99658.23
2018-02-15T03:31:53.497Z,99660.86
2018-02-15T03:34:54.992Z,99646.91
2018-02-15T03:37:56.416Z,99651.53
2018-02-15T03:40:58.912Z,99650.98
2018-02-15T03:44:01.042Z,99657.73
2018-02-15T03:47:02.435Z,99651.21
2018-02-15T03:50:03.945Z,99645.93
2018-02-15T03:53:06.121Z,99649.03
2018-02-15T03:56:07.522Z,99649.94
2018-02-15T03:59:09.006Z,99644.84
2018-02-15T04:02:10.443Z,99628.72
2018-02-15T04:05:12.588Z,99653.06
2018-02-15T04:08:13.950Z,99651.02
2018-02-15T04:11:15.391Z,99670.08
2018-02-15T04:14:16.816Z,99665.79
2018-02-15T04:17:18.221Z,99673.63
2018-02-15T04:20:19.673Z,99665.20
2018-02-15T04:23:21.161Z,99644.45
2018-02-15T04:26:22.577Z,99666.48
2018-02-15T04:29:24.017Z,99678.56
2018-02-15T04:32:26.189Z,99670.31
2018-02-15T04:35:27.622Z,99676.08
2018-02-15T04:38:29.063Z,99672.57
2018-02-15T04:41:30.471Z,99671.69
2018-02-15T04:44:32.749Z,99667.01
2018-02-15T04:47:34.273Z,99663.94
2018-02-15T04:50:35.712Z,99660.48
2018-02-15T04:53:37.141Z,99669.60
2018-02-15T04:56:38.570Z,99647.86
2018-02-15T04:59:40.049Z,99650.03
2018-02-15T05:02:41.530Z,99635.17
2018-02-15T05:05:42.973Z,99633.48
2018-02-15T05:08:45.150Z,99627.75
2018-02-15T05:14:55.590Z,99613.79
2018-02-15T05:17:57.046Z,99594.70
2018-02-15T05:20:58.447Z,99588.96
2018-02-15T05:23:59.855Z,99587.69
2018-02-15T05:27:02.018Z,99583.80
2018-02-15T05:30:03.490Z,99572.92
2018-02-15T05:33:04.937Z,99563.32
2018-02-15T05:36:06.404Z,99569.88
2018-02-15T05:39:08.555Z,99566.38
2018-02-15T05:42:09.954Z,99549.81
2018-02-15T05:45:12.442Z,99560.72
2018-02-15T05:48:13.919Z,99541.50
2018-02-15T05:51:15.399Z,99545.48
2018-02-15T05:54:16.809Z,99545.91
2018-02-15T05:57:18.239Z,99553.27
2018-02-15T06:00:20.421Z,99540.70
2018-02-15T06:03:21.865Z,99527.64
2018-02-15T06:06:23.337Z,99528.95
2018-02-15T06:09:24.805Z,99536.76
2018-02-15T06:12:26.327Z,99529.32
2018-02-15T06:15:27.805Z,99521.12
2018-02-15T06:18:29.251Z,99522.75
2018-02-15T06:21:31.412Z,99516.28
2018-02-15T06:24:32.888Z,99505.34
2018-02-15T06:27:34.428Z,99498.36
2018-02-15T06:33:44.019Z,99502.80
2018-02-15T06:36:45.542Z,99486.70
2018-02-15T06:39:47.061Z,99490.64
2018-02-15T06:42:49.278Z,99485.42
2018-02-15T06:45:50.756Z,99479.28
2018-02-15T06:48:52.256Z,99489.73
2018-02-15T06:51:53.703Z,99484.91
2018-02-15T06:54:55.199Z,99486.19
2018-02-15T06:57:57.351Z,99498.30
2018-02-15T07:00:58.759Z,99487.75
2018-02-15T07:04:00.179Z,99477.80
2018-02-15T07:07:01.579Z,99474.09
2018-02-15T07:10:03.034Z,99470.54
2018-02-15T07:13:05.208Z,99486.88
2018-02-15T07:16:06.753Z,99483.03
2018-02-15T07:19:08.180Z,99485.89
2018-02-15T07:22:09.693Z,99473.09
2018-02-15T07:25:11.138Z,99469.19
2018-02-15T07:28:12.564Z,99472.12
2018-02-15T07:31:13.973Z,99452.22
2018-02-15T07:34:15.482Z,99467.50
2018-02-15T07:37:16.896Z,99506.67
2018-02-15T07:40:19.081Z,99484.23
2018-02-15T07:43:20.497Z,99482.26
2018-02-15T07:46:22.682Z,99501.33
2018-02-15T07:49:24.867Z,99467.34
2018-02-15T07:52:26.339Z,99480.83
2018-02-15T07:55:27.778Z,99479.82
2018-02-15T07:58:29.301Z,99482.34
2018-02-15T08:01:30.719Z,99471.65
2018-02-15T08:04:32.871Z,99460.22
2018-02-15T08:07:34.326Z,99473.85
2018-02-15T08:10:35.726Z,99485.08
2018-02-15T08:13:37.167Z,99487.75
2018-02-15T08:16:38.610Z,99481.56
2018-02-15T08:19:40.152Z,99464.92
2018-02-15T08:22:42.299Z,99475.42
2018-02-15T08:25:44.494Z,99491.91
2018-02-15T08:28:46.036Z,99498.22
2018-02-15T08:31:47.564Z,99483.58
2018-02-15T08:34:49.054Z,99495.58
2018-02-15T08:37:50.550Z,99491.50
2018-02-15T08:40:52.018Z,99491.72
2018-02-15T08:43:54.182Z,99494.12
2018-02-15T08:46:55.593Z,99507.61
2018-02-15T08:49:57.814Z,99538.46
2018-02-15T08:53:00.010Z,99496.56
2018-02-15T08:56:01.419Z,99504.63
2018-02-15T08:59:02.928Z,99511.84
2018-02-15T09:02:04.389Z,99506.89
2018-02-15T09:05:05.801Z,99510.60
2018-02-15T09:08:07.236Z,99492.23
2018-02-15T09:11:09.394Z,99492.91
2018-02-15T09:14:11.461Z,99494.34
2018-02-15T09:17:13.629Z,99489.36
2018-02-15T09:20:15.158Z,99493.91
2018-02-15T09:23:16.562Z,99482.81
2018-02-15T09:26:17.921Z,99494.48
2018-02-15T09:29:19.365Z,99506.67
2018-02-15T09:32:20.804Z,99502.67
2018-02-15T09:35:22.227Z,99508.89
2018-02-15T09:38:23.630Z,99522.63
2018-02-15T09:41:25.089Z,99508.17
2018-02-15T09:44:26.478Z,99500.56
2018-02-15T09:47:27.938Z,99496.70
2018-02-15T09:50:29.363Z,99529.73
2018-02-15T09:53:30.775Z,99515.88
2018-02-15T09:56:32.171Z,99528.38
2018-02-15T09:59:33.595Z,99531.95
2018-02-15T10:02:35.056Z,99512.59
2018-02-15T10:05:37.218Z,99521.20
2018-02-15T10:08:38.670Z,99510.77
2018-02-15T10:11:40.146Z,99515.17
2018-02-15T10:14:41.564Z,99517.39
2018-02-15T10:17:43.009Z,99521.73
2018-02-15T10:20:44.437Z,99538.59
2018-02-15T10:23:45.870Z,99517.62
2018-02-15T10:26:48.045Z,99530.44
2018-02-15T10:29:49.453Z,99545.61
2018-02-15T10:32:50.880Z,99544.98
2018-02-15T10:35:52.287Z,99543.36
2018-02-15T10:38:53.718Z,99540.80
2018-02-15T10:41:55.857Z,99532.48
2018-02-15T10:44:57.295Z,99530.83
2018-02-15T10:47:58.694Z,99537.46
2018-02-15T10:51:00.118Z,99540.10
2018-02-15T10:54:01.535Z,99545.31
2018-02-15T10:57:02.971Z,99538.79
2018-02-15T11:00:04.419Z,99553.97
2018-02-15T11:03:12.034Z,99559.02
2018-02-15T11:06:13.534Z,99548.63
2018-02-15T11:09:14.978Z,99548.25
2018-02-15T11:12:16.445Z,99547.81
2018-02-15T11:15:17.899Z,99554.73
2018-02-15T11:18:19.374Z,99541.73
2018-02-15T11:21:20.818Z,99552.17
2018-02-15T11:24:22.312Z,99562.65
2018-02-15T11:27:23.793Z,99556.08
2018-02-15T11:30:25.312Z,99559.33
2018-02-15T11:33:26.762Z,99560.76
2018-02-15T11:36:28.207Z,99572.27
2018-02-15T11:39:29.693Z,99560.79
2018-02-15T11:42:31.166Z,99566.00
2018-02-15T11:45:32.586Z,99553.08
2018-02-15T11:48:34.022Z,99569.17
2018-02-15T11:51:35.425Z,99573.21
2018-02-15T11:54:36.846Z,99586.16
2018-02-15T11:57:38.289Z,99585.61
2018-02-15T12:00:39.858Z,99585.14
2018-02-15T12:03:42.107Z,99584.70
2018-02-15T12:06:43.547Z,99600.45
2018-02-15T12:09:45.714Z,99596.45
2018-02-15T12:12:47.126Z,99605.22
2018-02-15T12:15:49.273Z,99588.45
2018-02-15T12:18:50.718Z,99605.96
2018-02-15T12:21:52.142Z,99596.95
2018-02-15T12:24:53.585Z,99595.78
2018-02-15T12:27:55.766Z,99612.58
2018-02-15T12:30:57.967Z,99605.30
2018-02-15T12:34:00.127Z,99612.87
2018-02-15T12:37:01.559Z,99598.03
2018-02-15T12:40:03.718Z,99593.27
2018-02-15T12:43:05.922Z,99599.05
2018-02-15T12:46:07.373Z,99596.95
2018-02-15T12:49:08.834Z,99574.63
2018-02-15T12:52:10.297Z,99598.94
2018-02-15T12:55:12.604Z,99595.92
2018-02-15T12:58:14.235Z,99602.84
2018-02-15T13:01:15.859Z,99595.55
2018-02-15T13:04:17.342Z,99601.56
2018-02-15T13:07:19.640Z,99602.19
2018-02-15T13:10:21.093Z,99597.48
2018-02-15T13:13:30.509Z,99601.23
2018-02-15T13:16:50.273Z,99608.04
2018-02-15T13:20:07.784Z,99607.92
2018-02-15T13:23:09.225Z,99612.98
2018-02-15T13:26:12.379Z,99617.27
2018-02-15T13:29:13.880Z,99613.24
2018-02-15T13:32:15.345Z,99618.59
2018-02-15T13:35:16.901Z,99610.94
2018-02-15T13:38:18.417Z,99619.39
2018-02-15T13:41:19.945Z,99622.45
2018-02-15T13:44:21.533Z,99620.70
2018-02-15T13:47:23.135Z,99601.33
2018-02-15T13:50:24.579Z,99611.53
2018-02-15T13:53:26.042Z,99608.04
2018-02-15T13:56:27.571Z,99634.17
2018-02-15T13:59:29.415Z,99637.20
2018-02-15T14:02:30.970Z,99629.75
2018-02-15T14:05:33.157Z,99645.15
2018-02-15T14:08:34.579Z,99654.27
2018-02-15T14:11:36.500Z,99653.16
2018-02-15T14:14:40.164Z,99657.83
2018-02-15T14:17:42.455Z,99660.50
2018-02-15T14:20:44.092Z,99666.00
2018-02-15T14:23:45.727Z,99654.62
2018-02-15T14:26:47.540Z,99668.33
2018-02-15T14:29:49.003Z,99667.50
2018-02-15T14:32:51.020Z,99681.97
2018-02-15T14:35:53.111Z,99686.88
2018-02-15T14:38:54.660Z,99701.66
2018-02-15T14:41:56.121Z,99693.27
2018-02-15T14:44:58.449Z,99686.66
2018-02-15T14:48:00.736Z,99679.47
2018-02-15T14:51:02.884Z,99688.58
2018-02-15T14:54:05.732Z,99699.30
2018-02-15T14:57:07.388Z,99701.79
2018-02-15T15:00:10.161Z,99696.48
2018-02-15T15:03:11.720Z,99703.27
2018-02-15T15:06:13.255Z,99708.23
2018-02-15T15:09:15.378Z,99711.30
2018-02-15T15:12:16.969Z,99723.34
2018-02-15T15:15:18.624Z,99729.64
2018-02-15T15:18:20.529Z,99738.25
2018-02-15T15:21:22.230Z,99743.72
2018-02-15T15:24:24.575Z,99751.16
2018-02-15T15:27:27.274Z,99757.75
2018-02-15T15:30:29.788Z,99748.66
2018-02-15T15:33:32.024Z,99750.84
2018-02-15T15:36:33.595Z,99755.11
2018-02-15T15:39:34.999Z,99753.30
2018-02-15T15:42:36.570Z,99736.47
2018-02-15T15:45:38.791Z,99767.69
2018-02-15T15:48:40.293Z,99773.81
2018-02-15T15:51:42.539Z,99779.16
2018-02-15T15:54:44.070Z,99730.08
2018-02-15T15:57:45.479Z,99777.86
2018-02-15T16:00:47.683Z,99774.08
2018-02-15T16:03:49.981Z,99782.35
2018-02-15T16:06:52.242Z,99786.16
2018-02-15T16:09:53.720Z,99784.60
2018-02-15T16:12:55.394Z,99779.02
2018-02-15T16:15:57.803Z,99778.50
2018-02-15T16:18:59.521Z,99782.53
2018-02-15T16:22:01.028Z,99783.91
2018-02-15T16:25:02.560Z,99780.88
2018-02-15T16:28:04.023Z,99796.20
2018-02-15T16:31:06.240Z,99792.03
2018-02-15T16:34:08.384Z,99792.61
2018-02-15T16:37:10.568Z,99789.78
2018-02-15T16:40:12.063Z,99810.00
2018-02-15T16:43:14.063Z,99810.95
2018-02-15T16:46:15.531Z,99785.01
2018-02-15T16:49:17.044Z,99822.66
2018-02-15T16:52:18.500Z,99839.94
2018-02-15T16:55:19.958Z,99846.44
2018-02-15T16:58:22.150Z,99835.55
2018-02-15T17:01:23.613Z,99841.05
2018-02-15T17:04:25.045Z,99838.28
2018-02-15T17:07:27.238Z,99840.84
2018-02-15T17:10:29.409Z,99848.45
2018-02-15T17:13:31.072Z,99855.90
2018-02-15T17:16:32.545Z,99850.52
2018-02-15T17:19:34.018Z,99856.08
2018-02-15T17:22:35.569Z,99854.84
2018-02-15T17:25:37.073Z,99876.19
2018-02-15T17:28:39.309Z,99856.66
2018-02-15T17:31:40.772Z,99854.31
2018-02-15T17:34:42.256Z,99864.83
2018-02-15T17:37:44.459Z,99859.72
2018-02-15T17:40:46.689Z,99872.59
2018-02-15T17:43:48.168Z,99886.58
2018-02-15T17:46:49.656Z,99881.58
2018-02-15T17:49:51.139Z,99894.23
2018-02-15T17:52:52.576Z,99895.91
2018-02-15T17:55:54.044Z,99898.55
2018-02-15T17:58:55.517Z,99912.50
2018-02-15T18:01:57.024Z,99915.97
2018-02-15T18:04:58.519Z,99913.77
2018-02-15T18:08:00.036Z,99909.81
2018-02-15T18:11:01.561Z,99907.18
2018-02-15T18:14:03.012Z,99909.83
2018-02-15T18:17:04.501Z,99913.78
2018-02-15T18:20:06.129Z,99909.69
2018-02-15T18:23:08.126Z,99917.95
2018-02-15T18:26:09.920Z,99919.41
2018-02-15T18:29:11.648Z,99921.59
2018-02-15T18:32:13.526Z,99924.61
2018-02-15T18:35:15.772Z,99921.52
2018-02-15T18:38:17.278Z,99917.08
2018-02-15T18:41:18.753Z,99921.51
2018-02-15T18:44:20.200Z,99933.74
2018-02-15T18:47:21.641Z,99937.27
2018-02-15T18:50:23.146Z,99939.06
2018-02-15T18:53:24.565Z,99953.98
2018-02-15T18:56:25.985Z,99959.58
2018-02-15T18:59:27.419Z,99963.71
2018-02-15T19:02:28.978Z,99982.17
2018-02-15T19:05:30.403Z,99986.83
2018-02-15T19:08:31.830Z,99999.11
2018-02-15T19:11:33.277Z,100007.39
2018-02-15T19:14:34.742Z,100015.16
2018-02-15T19:17:36.472Z,100018.83
2018-02-15T19:20:38.640Z,100024.77
2018-02-15T19:23:40.085Z,100039.58
2018-02-15T19:26:41.864Z,100040.25
2018-02-15T19:29:44.298Z,100042.08
2018-02-15T19:32:45.736Z,100030.23
2018-02-15T19:35:47.998Z,100041.01
2018-02-15T19:38:50.668Z,100050.20
2018-02-15T19:41:52.266Z,100045.83
2018-02-15T19:44:54.196Z,100042.52
2018-02-15T19:47:55.663Z,100050.31
2018-02-15T19:50:57.153Z,100049.27
2018-02-15T19:53:59.691Z,100066.01
2018-02-15T19:57:02.228Z,100057.58
2018-02-15T20:00:03.896Z,100061.67
2018-02-15T20:03:06.373Z,100069.59
2018-02-15T20:06:07.979Z,100068.06
2018-02-15T20:09:11.232Z,100075.80
2018-02-15T20:12:12.784Z,100069.42
2018-02-15T20:15:14.496Z,100066.25
2018-02-15T20:18:15.971Z,100073.41
2018-02-15T20:21:17.483Z,100075.55
2018-02-15T20:24:19.898Z,100083.80
2018-02-15T20:27:27.414Z,100088.98
2018-02-15T20:30:30.029Z,100095.02
2018-02-15T20:33:32.358Z,100093.80
2018-02-15T20:36:33.838Z,100095.02
2018-02-15T20:39:41.230Z,100102.94
2018-02-15T20:42:42.645Z,100111.23
2018-02-15T20:45:45.087Z,100113.45
2018-02-15T20:48:46.614Z,100120.88
2018-02-15T20:51:54.259Z,100134.86
2018-02-15T20:55:02.704Z,100128.28
2018-02-15T20:58:05.012Z,100139.84
2018-02-15T21:01:07.135Z,100142.38
2018-02-15T21:04:08.787Z,100145.45
2018-02-15T21:07:10.216Z,100150.73
2018-02-15T21:10:11.724Z,100146.44
2018-02-15T21:13:13.252Z,100147.99
2018-02-15T21:16:15.433Z,100150.58
2018-02-15T21:19:16.806Z,100150.14
2018-02-15T21:22:18.219Z,100157.63
2018-02-15T21:25:19.710Z,100150.58
2018-02-15T21:28:22.035Z,100176.86
2018-02-15T21:31:23.653Z,100187.80
2018-02-15T21:34:25.179Z,100182.98
2018-02-15T21:37:26.586Z,100184.70
2018-02-15T21:40:29.116Z,100184.32
2018-02-15T21:43:30.628Z,100183.44
2018-02-15T21:46:32.115Z,100188.70
2018-02-15T21:49:34.258Z,100195.70
2018-02-15T21:52:35.862Z,100186.51
2018-02-15T21:55:37.403Z,100196.12
2018-02-15T21:58:38.936Z,100198.30
2018-02-15T22:01:40.451Z,100257.37
2018-02-15T22:04:42.126Z,100221.95
2018-02-15T22:07:43.706Z,100211.88
2018-02-15T22:10:45.357Z,100225.27
2018-02-15T22:13:48.373Z,100227.89
2018-02-15T22:16:49.941Z,100239.39
2018-02-15T22:19:51.438Z,100239.44
2018-02-15T22:22:52.994Z,100232.00
2018-02-15T22:25:54.552Z,100218.86
2018-02-15T22:28:56.886Z,100237.67
2018-02-15T22:31:58.335Z,100249.49
2018-02-15T22:35:00.571Z,100259.56
2018-02-15T22:38:02.015Z,100264.31
2018-02-15T22:41:07.245Z,100266.45
2018-02-15T22:44:09.874Z,100269.55
2018-02-15T22:47:11.421Z,100274.77
2018-02-15T22:50:12.851Z,100277.22
2018-02-15T22:53:14.320Z,100279.54
2018-02-15T22:56:15.789Z,100291.27
2018-02-15T22:59:17.289Z,100291.40
2018-02-15T23:02:18.792Z,100276.98
2018-02-15T23:05:20.271Z,100297.78
2018-02-15T23:08:21.695Z,100298.73
2018-02-15T23:11:23.161Z,100294.29
2018-02-15T23:14:24.632Z,100301.91
2018-02-15T23:17:26.071Z,100307.19
2018-02-15T23:20:27.500Z,100311.89
2018-02-15T23:23:28.935Z,100315.80
2018-02-15T23:26:30.369Z,100315.36
2018-02-15T23:29:31.875Z,100308.27
2018-02-15T23:32:33.323Z,100333.27
2018-02-15T23:35:34.796Z,100327.09
2018-02-15T23:38:36.289Z,100321.89
2018-02-15T23:41:37.809Z,100320.87
2018-02-15T23:44:39.269Z,100333.98
2018-02-15T23:47:40.749Z,100337.22
2018-02-15T23:50:42.198Z,100334.43
2018-02-15T23:53:44.396Z,100338.24
2018-02-15T23:56:45.905Z,100343.69
2018-02-15T23:59:48.127Z,100346.97
